createdAt,value
2023-04-04T00:01:41.569Z,20.40
2023-04-04T00:03:43.522Z,20.40
2023-04-04T00:05:45.592Z,20.40
2023-04-04T00:07:47.580Z,20.40
2023-04-04T00:09:49.334Z,20.40
2023-04-04T00:11:51.232Z,20.40
2023-04-04T00:13:53.071Z,20.40
2023-04-04T00:15:55.031Z,20.40
2023-04-04T00:17:56.929Z,20.40
2023-04-04T00:19:58.771Z,20.40
2023-04-04T00:22:00.549Z,20.40
2023-04-04T00:24:02.805Z,20.40
2023-04-04T00:26:04.603Z,20.40
2023-04-04T00:28:06.535Z,20.40
2023-04-04T00:30:08.626Z,20.40
2023-04-04T00:32:10.562Z,20.40
2023-04-04T00:34:12.394Z,20.40
2023-04-04T00:36:14.185Z,20.40
2023-04-04T00:38:16.047Z,20.40
2023-04-04T00:40:17.839Z,20.40
2023-04-04T00:42:20.043Z,20.40
2023-04-04T00:44:21.865Z,20.40
2023-04-04T00:46:23.736Z,20.40
2023-04-04T00:48:25.817Z,20.40
2023-04-04T00:50:27.598Z,20.40
2023-04-04T00:52:29.497Z,20.40
2023-04-04T00:54:31.531Z,20.40
2023-04-04T00:56:35.878Z,20.40
2023-04-04T00:58:37.960Z,20.40
2023-04-04T01:00:40.201Z,20.40
2023-04-04T01:02:42.271Z,20.40
2023-04-04T01:04:44.693Z,20.40
2023-04-04T01:06:46.698Z,20.40
2023-04-04T01:08:49.050Z,20.40
2023-04-04T01:10:50.888Z,20.40
2023-04-04T01:12:52.738Z,20.30
2023-04-04T01:14:54.547Z,20.30
2023-04-04T01:16:56.556Z,20.30
2023-04-04T01:19:06.460Z,20.40
2023-04-04T01:21:10.675Z,20.40
2023-04-04T01:23:14.465Z,20.40
2023-04-04T01:25:18.001Z,20.40
2023-04-04T01:27:23.305Z,20.40
2023-04-04T01:29:30.668Z,20.40
2023-04-04T01:31:37.000Z,20.40
2023-04-04T01:33:50.558Z,20.40
2023-04-04T01:36:01.215Z,20.40
2023-04-04T01:38:11.582Z,20.40
2023-04-04T01:40:18.213Z,20.40
2023-04-04T01:42:23.277Z,20.40
2023-04-04T01:44:26.386Z,20.50
2023-04-04T01:46:28.239Z,20.40
2023-04-04T01:48:30.236Z,20.50
2023-04-04T01:50:35.641Z,20.50
2023-04-04T01:52:37.435Z,20.50
2023-04-04T01:54:39.333Z,20.50
2023-04-04T01:56:41.198Z,20.50
2023-04-04T01:58:43.072Z,20.50
2023-04-04T02:00:44.942Z,20.50
2023-04-04T02:02:46.739Z,20.50
2023-04-04T02:04:48.761Z,20.50
2023-04-04T02:06:50.680Z,20.50
2023-04-04T02:08:52.911Z,20.50
2023-04-04T02:10:57.332Z,20.50
2023-04-04T02:12:59.193Z,20.50
2023-04-04T02:15:00.968Z,20.50
2023-04-04T02:17:02.854Z,20.50
2023-04-04T02:19:04.664Z,20.50
2023-04-04T02:21:11.668Z,20.50
2023-04-04T02:23:13.491Z,20.50
2023-04-04T02:25:15.316Z,20.40
2023-04-04T02:27:18.263Z,20.40
2023-04-04T02:29:20.064Z,20.50
2023-04-04T02:31:21.989Z,20.50
2023-04-04T02:33:23.888Z,20.50
2023-04-04T02:35:26.191Z,20.50
2023-04-04T02:37:28.001Z,20.50
2023-04-04T02:39:30.772Z,20.50
2023-04-04T02:41:34.704Z,20.50
2023-04-04T02:43:37.690Z,20.50
2023-04-04T02:45:42.029Z,20.50
2023-04-04T02:48:02.842Z,20.60
2023-04-04T02:50:13.405Z,20.50
2023-04-04T02:52:15.241Z,20.50
2023-04-04T02:54:20.585Z,20.50
2023-04-04T02:56:22.929Z,20.50
2023-04-04T02:58:24.764Z,20.50
2023-04-04T03:00:26.560Z,20.50
2023-04-04T03:02:28.634Z,20.50
2023-04-04T03:04:30.595Z,20.50
2023-04-04T03:06:32.545Z,20.50
2023-04-04T03:08:34.605Z,20.50
2023-04-04T03:10:36.834Z,20.50
2023-04-04T03:12:39.040Z,20.50
2023-04-04T03:14:40.985Z,20.50
2023-04-04T03:16:42.884Z,20.50
2023-04-04T03:18:44.782Z,20.50
2023-04-04T03:20:47.434Z,20.50
2023-04-04T03:22:50.882Z,20.50
2023-04-04T03:24:52.670Z,20.50
2023-04-04T03:26:54.602Z,20.50
2023-04-04T03:28:56.376Z,20.50
2023-04-04T03:31:03.534Z,20.50
2023-04-04T03:33:05.741Z,20.50
2023-04-04T03:35:07.717Z,20.50
2023-04-04T03:37:09.553Z,20.50
2023-04-04T03:39:11.348Z,20.50
2023-04-04T03:41:13.149Z,20.50
2023-04-04T03:43:14.903Z,20.50
2023-04-04T03:45:16.767Z,20.50
2023-04-04T03:47:18.680Z,20.50
2023-04-04T03:49:20.507Z,20.50
2023-04-04T03:51:28.535Z,20.50
2023-04-04T03:53:30.364Z,20.50
2023-04-04T03:55:33.575Z,20.50
2023-04-04T03:57:35.770Z,20.50
2023-04-04T03:59:38.708Z,20.50
2023-04-04T04:01:40.545Z,20.50
2023-04-04T04:03:43.098Z,20.50
2023-04-04T04:05:46.413Z,20.50
2023-04-04T04:07:48.211Z,20.50
2023-04-04T04:09:49.946Z,20.50
2023-04-04T04:11:51.799Z,20.50
2023-04-04T04:13:53.602Z,20.50
2023-04-04T04:15:56.621Z,20.50
2023-04-04T04:17:58.549Z,20.40
2023-04-04T04:20:02.615Z,20.50
2023-04-04T04:22:11.962Z,20.50
2023-04-04T04:24:13.721Z,20.50
2023-04-04T04:26:15.650Z,20.50
2023-04-04T04:28:17.512Z,20.50
2023-04-04T04:30:19.436Z,20.50
2023-04-04T04:32:21.375Z,20.40
2023-04-04T04:34:27.127Z,20.50
2023-04-04T04:36:33.092Z,20.50
2023-04-04T04:38:50.186Z,20.50
2023-04-04T04:40:52.325Z,20.50
2023-04-04T04:43:00.744Z,20.50
2023-04-04T04:45:03.125Z,20.50
2023-04-04T04:47:08.589Z,20.50
2023-04-04T04:49:11.041Z,20.50
2023-04-04T04:51:12.995Z,20.50
2023-04-04T04:53:22.623Z,20.50
2023-04-04T04:55:25.105Z,20.50
2023-04-04T04:57:38.294Z,20.50
2023-04-04T04:59:46.971Z,20.50
2023-04-04T05:01:49.785Z,20.50
2023-04-04T05:03:53.347Z,20.40
2023-04-04T05:06:01.856Z,20.50
2023-04-04T05:08:04.612Z,20.50
2023-04-04T05:10:06.956Z,20.50
2023-04-04T05:12:08.799Z,20.50
2023-04-04T05:14:15.580Z,20.50
2023-04-04T05:16:26.401Z,20.50
2023-04-04T05:18:31.826Z,20.50
2023-04-04T05:20:33.917Z,20.50
2023-04-04T05:22:42.223Z,20.50
2023-04-04T05:24:47.112Z,20.50
2023-04-04T05:26:51.595Z,20.50
2023-04-04T05:28:55.290Z,20.50
2023-04-04T05:30:59.289Z,20.40
2023-04-04T05:33:04.437Z,20.50
2023-04-04T05:35:06.552Z,20.50
2023-04-04T05:37:10.144Z,20.50
2023-04-04T05:39:12.581Z,20.50
2023-04-04T05:41:23.321Z,20.50
2023-04-04T05:43:27.845Z,20.50
2023-04-04T05:45:41.999Z,20.50
2023-04-04T05:47:44.661Z,20.50
2023-04-04T05:49:47.620Z,20.50
2023-04-04T05:51:49.485Z,20.50
2023-04-04T05:53:51.920Z,20.50
2023-04-04T05:56:01.822Z,20.50
2023-04-04T05:58:06.368Z,20.50
2023-04-04T06:00:21.370Z,20.50
2023-04-04T06:02:34.172Z,20.40
2023-04-04T06:04:38.743Z,20.50
2023-04-04T06:06:41.665Z,20.50
2023-04-04T06:08:53.606Z,20.50
2023-04-04T06:10:55.928Z,20.50
2023-04-04T06:12:58.064Z,20.50
2023-04-04T06:14:59.925Z,20.50
2023-04-04T06:17:02.230Z,20.50
2023-04-04T06:19:05.532Z,20.50
2023-04-04T06:21:07.292Z,20.50
2023-04-04T06:23:10.734Z,20.50
2023-04-04T06:25:17.101Z,20.50
2023-04-04T06:27:18.980Z,20.40
2023-04-04T06:29:22.024Z,20.50
2023-04-04T06:31:24.036Z,20.50
2023-04-04T06:33:28.090Z,20.50
2023-04-04T06:35:30.261Z,20.50
2023-04-04T06:37:34.296Z,20.50
2023-04-04T06:39:44.571Z,20.50
2023-04-04T06:41:55.228Z,20.50
2023-04-04T06:44:02.328Z,20.50
2023-04-04T06:46:04.305Z,20.50
2023-04-04T06:48:06.230Z,20.50
2023-04-04T06:50:08.993Z,20.50
2023-04-04T06:52:11.676Z,20.50
2023-04-04T06:54:13.546Z,20.50
2023-04-04T06:56:15.429Z,20.50
2023-04-04T06:58:17.301Z,20.50
2023-04-04T07:00:19.230Z,20.50
2023-04-04T07:02:21.058Z,20.50
2023-04-04T07:04:22.920Z,20.50
2023-04-04T07:08:34.402Z,20.20
2023-04-04T07:10:39.729Z,20.10
2023-04-04T07:12:42.353Z,20.00
2023-04-04T07:14:44.181Z,20.00
2023-04-04T07:16:46.033Z,20.20
2023-04-04T07:18:47.853Z,20.20
2023-04-04T07:20:49.701Z,20.30
2023-04-04T07:22:51.542Z,20.40
2023-04-04T07:24:53.336Z,20.60
2023-04-04T07:26:55.121Z,20.70
2023-04-04T07:28:56.987Z,20.70
2023-04-04T07:31:01.656Z,20.60
2023-04-04T07:33:03.616Z,20.60
2023-04-04T07:35:05.912Z,20.70
2023-04-04T07:37:07.701Z,20.80
2023-04-04T07:39:09.551Z,20.90
2023-04-04T07:41:11.391Z,20.70
2023-04-04T07:43:13.211Z,20.60
2023-04-04T07:45:15.032Z,20.60
2023-04-04T07:47:16.980Z,20.80
2023-04-04T07:49:18.805Z,20.90
2023-04-04T07:51:20.554Z,21.00
2023-04-04T07:53:22.376Z,21.10
2023-04-04T07:55:24.501Z,21.20
2023-04-04T07:57:26.309Z,21.30
2023-04-04T07:59:28.181Z,21.50
2023-04-04T08:01:30.007Z,21.60
2023-04-04T08:03:32.049Z,21.60
2023-04-04T08:05:34.031Z,21.70
2023-04-04T08:07:35.993Z,21.70
2023-04-04T08:09:37.860Z,21.80
2023-04-04T08:11:39.613Z,21.80
2023-04-04T08:13:41.391Z,21.80
2023-04-04T08:15:43.930Z,21.90
2023-04-04T08:17:45.735Z,21.90
2023-04-04T08:19:47.623Z,21.80
2023-04-04T08:21:49.439Z,21.80
2023-04-04T08:23:51.249Z,21.70
2023-04-04T08:25:53.038Z,21.70
2023-04-04T08:27:54.824Z,21.80
2023-04-04T08:29:56.673Z,21.80
2023-04-04T08:31:58.585Z,21.80
2023-04-04T08:34:00.402Z,21.80
2023-04-04T08:36:02.940Z,21.80
2023-04-04T08:38:04.788Z,21.70
2023-04-04T08:40:07.152Z,21.80
2023-04-04T08:42:09.129Z,21.90
2023-04-04T08:44:16.094Z,21.90
2023-04-04T08:46:18.069Z,21.90
2023-04-04T08:48:20.851Z,22.00
2023-04-04T08:50:22.782Z,21.80
2023-04-04T08:54:28.662Z,21.50
2023-04-04T08:56:30.476Z,21.60
2023-04-04T08:58:32.313Z,21.70
2023-04-04T09:00:34.157Z,21.80
2023-04-04T09:02:42.991Z,21.90
2023-04-04T09:04:51.535Z,22.00
2023-04-04T09:07:05.579Z,22.00
2023-04-04T09:09:07.533Z,22.00
2023-04-04T09:11:09.743Z,22.00
2023-04-04T09:13:16.135Z,22.00
2023-04-04T09:15:18.558Z,21.90
2023-04-04T09:17:20.342Z,21.90
2023-04-04T09:19:23.207Z,21.90
2023-04-04T09:21:26.937Z,21.90
2023-04-04T09:23:28.737Z,21.90
2023-04-04T09:25:30.518Z,22.00
2023-04-04T09:27:32.337Z,22.00
2023-04-04T09:29:34.139Z,22.10
2023-04-04T09:31:35.969Z,22.10
2023-04-04T09:33:38.577Z,22.10
2023-04-04T09:35:43.879Z,22.20
2023-04-04T09:37:45.797Z,22.20
2023-04-04T09:39:48.310Z,22.30
2023-04-04T09:41:50.561Z,22.20
2023-04-04T09:43:52.613Z,22.30
2023-04-04T09:45:54.785Z,22.30
2023-04-04T09:47:57.389Z,22.20
2023-04-04T09:50:03.182Z,22.30
2023-04-04T09:52:05.001Z,22.20
2023-04-04T09:54:13.228Z,22.20
2023-04-04T09:56:24.120Z,22.20
2023-04-04T09:58:29.728Z,22.20
2023-04-04T10:00:31.554Z,22.30
2023-04-04T10:02:33.540Z,22.30
2023-04-04T10:04:35.592Z,22.30
2023-04-04T10:06:37.856Z,22.30
2023-04-04T10:08:41.056Z,22.30
2023-04-04T10:10:55.717Z,22.20
2023-04-04T10:17:10.435Z,22.20
2023-04-04T10:19:12.709Z,22.30
2023-04-04T10:21:16.032Z,22.30
2023-04-04T10:23:19.071Z,22.40
2023-04-04T10:25:20.869Z,22.30
2023-04-04T10:27:22.711Z,22.40
2023-04-04T10:29:25.093Z,22.40
2023-04-04T10:31:26.954Z,22.40
2023-04-04T10:33:46.613Z,22.40
2023-04-04T10:35:51.249Z,22.50
2023-04-04T10:37:57.077Z,22.50
2023-04-04T10:40:05.616Z,22.40
2023-04-04T10:42:07.580Z,22.50
2023-04-04T10:44:18.348Z,22.40
2023-04-04T10:46:22.810Z,22.40
2023-04-04T10:48:25.521Z,22.40
2023-04-04T10:50:27.427Z,22.50
2023-04-04T10:52:29.683Z,22.60
2023-04-04T10:54:31.545Z,22.60
2023-04-04T10:56:33.687Z,22.50
2023-04-04T10:58:41.324Z,22.60
2023-04-04T11:00:50.072Z,22.60
2023-04-04T11:02:54.808Z,22.60
2023-04-04T11:05:09.936Z,22.60
2023-04-04T11:07:18.020Z,22.60
2023-04-04T11:09:38.258Z,22.50
2023-04-04T11:11:58.960Z,22.40
2023-04-04T11:14:00.775Z,22.30
2023-04-04T11:16:06.381Z,22.10
2023-04-04T11:18:26.561Z,22.00
2023-04-04T11:20:29.972Z,21.90
2023-04-04T11:22:31.786Z,21.80
2023-04-04T11:24:42.289Z,21.80
2023-04-04T11:26:44.187Z,21.60
2023-04-04T11:28:46.391Z,21.60
2023-04-04T11:30:48.360Z,21.90
2023-04-04T11:33:03.963Z,22.00
2023-04-04T11:35:08.437Z,22.20
2023-04-04T11:37:16.344Z,22.30
2023-04-04T11:39:18.205Z,22.40
2023-04-04T11:41:21.120Z,22.40
2023-04-04T11:43:23.373Z,22.40
2023-04-04T11:45:25.681Z,22.30
2023-04-04T11:47:28.894Z,22.20
2023-04-04T11:49:31.135Z,22.10
2023-04-04T11:51:32.955Z,22.10
2023-04-04T11:53:34.768Z,22.20
2023-04-04T11:55:41.628Z,22.30
2023-04-04T11:57:43.564Z,22.40
2023-04-04T11:59:49.789Z,22.40
2023-04-04T12:01:51.684Z,22.20
2023-04-04T12:03:53.607Z,22.10
2023-04-04T12:05:57.103Z,22.00
2023-04-04T12:07:59.204Z,22.10
2023-04-04T12:10:01.445Z,22.10
2023-04-04T12:12:03.324Z,22.10
2023-04-04T12:14:05.140Z,22.00
2023-04-04T12:16:08.206Z,22.00
2023-04-04T12:18:10.110Z,22.00
2023-04-04T12:20:11.965Z,21.90
2023-04-04T12:22:13.758Z,21.90
2023-04-04T12:24:15.932Z,21.90
2023-04-04T12:26:17.918Z,22.00
2023-04-04T12:28:19.764Z,22.00
2023-04-04T12:30:21.649Z,22.10
2023-04-04T12:32:23.800Z,22.10
2023-04-04T12:36:38.418Z,22.40
2023-04-04T12:38:55.499Z,22.50
2023-04-04T12:40:57.805Z,22.40
2023-04-04T12:43:00.096Z,22.50
2023-04-04T12:45:02.895Z,22.40
2023-04-04T12:47:08.990Z,22.50
2023-04-04T12:49:11.267Z,22.60
2023-04-04T12:51:13.139Z,22.70
2023-04-04T12:53:27.883Z,22.70
2023-04-04T12:55:31.189Z,22.70
2023-04-04T12:57:33.969Z,22.70
2023-04-04T12:59:36.507Z,22.70
2023-04-04T13:01:38.489Z,22.80
2023-04-04T13:03:41.254Z,22.80
2023-04-04T13:05:43.745Z,22.90
2023-04-04T13:11:56.467Z,23.10
2023-04-04T13:14:02.325Z,23.00
2023-04-04T13:16:05.010Z,23.00
2023-04-04T13:18:15.258Z,22.90
2023-04-04T13:20:18.320Z,22.90
2023-04-04T13:22:20.221Z,22.80
2023-04-04T13:24:22.177Z,22.90
2023-04-04T13:26:23.947Z,22.90
2023-04-04T13:28:26.090Z,22.90
2023-04-04T13:30:28.081Z,22.90
2023-04-04T13:32:29.994Z,22.90
2023-04-04T13:34:32.825Z,23.00
2023-04-04T13:36:34.664Z,23.00
2023-04-04T13:38:36.512Z,22.60
2023-04-04T13:40:38.480Z,22.60
2023-04-04T13:42:40.266Z,22.70
2023-04-04T13:44:42.060Z,22.80
2023-04-04T13:46:43.853Z,22.90
2023-04-04T13:48:45.745Z,22.90
2023-04-04T13:50:47.753Z,23.00
2023-04-04T13:52:49.577Z,23.00
2023-04-04T13:54:51.420Z,23.10
2023-04-04T13:56:54.701Z,23.10
2023-04-04T13:58:57.597Z,23.20
2023-04-04T14:01:02.348Z,23.20
2023-04-04T14:03:04.390Z,23.30
2023-04-04T14:05:06.507Z,23.30
2023-04-04T14:07:08.316Z,23.40
2023-04-04T14:09:10.170Z,23.40
2023-04-04T14:11:12.636Z,23.40
2023-04-04T14:13:14.445Z,23.30
2023-04-04T14:15:16.274Z,23.20
2023-04-04T14:17:18.158Z,23.30
2023-04-04T14:19:20.026Z,23.20
2023-04-04T14:21:21.826Z,23.30
2023-04-04T14:23:23.627Z,23.20
2023-04-04T14:25:25.410Z,23.10
2023-04-04T14:27:27.307Z,23.20
2023-04-04T14:29:29.180Z,23.10
2023-04-04T14:31:31.015Z,23.10
2023-04-04T14:33:32.853Z,23.10
2023-04-04T14:35:34.636Z,23.10
2023-04-04T14:37:36.481Z,23.10
2023-04-04T14:39:38.308Z,23.10
2023-04-04T14:41:40.126Z,22.90
2023-04-04T14:43:41.968Z,22.60
2023-04-04T14:45:43.823Z,22.50
2023-04-04T14:47:45.651Z,22.50
2023-04-04T14:49:47.528Z,22.60
2023-04-04T14:51:50.505Z,22.70
2023-04-04T14:53:52.329Z,22.60
2023-04-04T14:55:54.260Z,22.30
2023-04-04T15:00:00.969Z,22.60
2023-04-04T15:02:02.851Z,22.60
2023-04-04T15:04:04.671Z,22.70
2023-04-04T15:06:06.586Z,22.70
2023-04-04T15:08:08.395Z,22.80
2023-04-04T15:10:10.261Z,22.80
2023-04-04T15:12:12.205Z,22.80
2023-04-04T15:14:14.029Z,22.80
2023-04-04T15:16:15.895Z,22.80
2023-04-04T15:18:17.707Z,22.80
2023-04-04T15:20:19.604Z,22.90
2023-04-04T15:22:21.420Z,22.90
2023-04-04T15:24:23.261Z,22.90
2023-04-04T15:26:25.122Z,22.80
2023-04-04T15:28:26.936Z,22.60
2023-04-04T15:30:29.295Z,22.50
2023-04-04T15:32:31.188Z,22.50
2023-04-04T15:34:33.029Z,22.50
2023-04-04T15:36:34.896Z,22.40
2023-04-04T15:38:36.710Z,22.40
2023-04-04T15:40:38.701Z,22.40
2023-04-04T15:42:40.678Z,22.40
2023-04-04T15:44:42.472Z,22.40
2023-04-04T15:46:44.325Z,22.30
2023-04-04T15:48:46.116Z,22.20
2023-04-04T15:50:47.943Z,22.20
2023-04-04T15:52:49.779Z,22.20
2023-04-04T15:54:51.724Z,22.20
2023-04-04T15:56:53.504Z,22.20
2023-04-04T15:58:55.382Z,22.20
2023-04-04T16:00:57.206Z,22.20
2023-04-04T16:02:59.424Z,22.10
2023-04-04T16:05:01.426Z,22.10
2023-04-04T16:07:03.250Z,21.90
2023-04-04T16:11:07.199Z,21.40
2023-04-04T16:13:08.997Z,21.20
2023-04-04T16:15:10.908Z,21.40
2023-04-04T16:17:12.731Z,21.50
2023-04-04T16:19:14.528Z,21.50
2023-04-04T16:21:16.355Z,21.50
2023-04-04T16:23:18.162Z,21.50
2023-04-04T16:25:20.222Z,21.60
2023-04-04T16:27:22.141Z,21.60
2023-04-04T16:29:23.958Z,21.60
2023-04-04T16:31:25.750Z,21.70
2023-04-04T16:33:27.643Z,21.60
2023-04-04T16:35:29.425Z,21.60
2023-04-04T16:37:31.237Z,21.60
2023-04-04T16:39:33.093Z,21.60
2023-04-04T16:41:34.945Z,21.50
2023-04-04T16:43:36.796Z,21.60
2023-04-04T16:45:38.609Z,21.50
2023-04-04T16:47:40.471Z,21.50
2023-04-04T16:49:42.285Z,21.50
2023-04-04T16:51:44.131Z,21.50
2023-04-04T16:53:45.885Z,21.50
2023-04-04T16:55:47.696Z,21.50
2023-04-04T16:57:49.544Z,21.50
2023-04-04T16:59:51.312Z,21.50
2023-04-04T17:01:53.182Z,21.50
2023-04-04T17:03:55.063Z,21.50
2023-04-04T17:05:56.887Z,21.50
2023-04-04T17:07:58.675Z,21.50
2023-04-04T17:10:00.526Z,21.50
2023-04-04T17:12:03.134Z,21.50
2023-04-04T17:14:04.962Z,21.50
2023-04-04T17:16:06.979Z,21.40
2023-04-04T17:18:08.930Z,21.40
2023-04-04T17:20:11.181Z,21.40
2023-04-04T17:22:12.940Z,21.40
2023-04-04T17:24:14.735Z,21.40
2023-04-04T17:26:16.530Z,21.40
2023-04-04T17:28:18.325Z,21.30
2023-04-04T17:30:20.153Z,21.30
2023-04-04T17:32:21.962Z,21.30
2023-04-04T17:34:24.110Z,21.30
2023-04-04T17:36:26.064Z,21.30
2023-04-04T17:38:28.013Z,21.20
2023-04-04T17:40:29.802Z,21.20
2023-04-04T17:42:31.604Z,21.20
2023-04-04T17:44:33.445Z,21.20
2023-04-04T17:46:35.331Z,21.20
2023-04-04T17:48:37.210Z,21.20
2023-04-04T17:50:39.310Z,21.10
2023-04-04T17:52:41.352Z,21.10
2023-04-04T17:54:43.207Z,21.10
2023-04-04T17:56:45.012Z,21.10
2023-04-04T17:58:46.840Z,21.10
2023-04-04T18:00:48.651Z,21.10
2023-04-04T18:02:50.522Z,21.10
2023-04-04T18:04:52.473Z,21.10
2023-04-04T18:06:54.283Z,21.00
2023-04-04T18:08:56.063Z,21.00
2023-04-04T18:10:58.020Z,21.00
2023-04-04T18:12:59.845Z,21.00
2023-04-04T18:15:01.945Z,21.00
2023-04-04T18:17:03.952Z,21.00
2023-04-04T18:19:05.753Z,21.00
2023-04-04T18:21:07.962Z,21.00
2023-04-04T18:23:09.760Z,21.00
2023-04-04T18:25:11.967Z,21.00
2023-04-04T18:27:13.817Z,21.00
2023-04-04T18:29:15.749Z,20.90
2023-04-04T18:31:17.588Z,20.90
2023-04-04T18:33:19.504Z,20.90
2023-04-04T18:35:21.353Z,20.90
2023-04-04T18:37:23.140Z,20.90
2023-04-04T18:39:25.084Z,20.90
2023-04-04T18:41:26.993Z,20.90
2023-04-04T18:43:28.797Z,20.90
2023-04-04T18:45:39.784Z,20.90
2023-04-04T18:47:42.321Z,20.80
2023-04-04T18:49:44.117Z,20.90
2023-04-04T18:51:48.742Z,20.80
2023-04-04T18:53:50.617Z,20.80
2023-04-04T18:55:52.429Z,20.80
2023-04-04T18:57:54.295Z,20.80
2023-04-04T18:59:56.180Z,20.80
2023-04-04T19:01:58.012Z,20.80
2023-04-04T19:04:00.512Z,20.80
2023-04-04T19:06:04.193Z,20.80
2023-04-04T19:08:12.041Z,20.80
2023-04-04T19:10:13.915Z,20.80
2023-04-04T19:12:15.733Z,20.80
2023-04-04T19:14:17.519Z,20.80
2023-04-04T19:16:19.351Z,20.80
2023-04-04T19:18:21.213Z,20.80
2023-04-04T19:20:23.022Z,20.80
2023-04-04T19:22:24.897Z,20.80
2023-04-04T19:24:26.711Z,20.80
2023-04-04T19:26:28.486Z,20.80
2023-04-04T19:28:30.321Z,20.80
2023-04-04T19:30:41.298Z,20.80
2023-04-04T19:32:43.269Z,20.80
2023-04-04T19:34:46.142Z,20.80
2023-04-04T19:36:48.010Z,20.80
2023-04-04T19:38:53.254Z,20.80
2023-04-04T19:40:56.677Z,20.70
2023-04-04T19:42:58.500Z,20.80
2023-04-04T19:45:00.323Z,20.70
2023-04-04T19:47:02.296Z,20.80
2023-04-04T19:49:11.139Z,20.80
2023-04-04T19:51:15.768Z,20.80
2023-04-04T19:53:25.833Z,20.80
2023-04-04T19:55:37.890Z,20.70
2023-04-04T19:57:39.768Z,20.70
2023-04-04T19:59:50.601Z,20.70
2023-04-04T20:02:00.057Z,20.70
2023-04-04T20:04:06.389Z,20.70
2023-04-04T20:06:12.610Z,20.70
2023-04-04T20:08:14.407Z,20.70
2023-04-04T20:10:35.164Z,20.70
2023-04-04T20:12:36.956Z,20.70
2023-04-04T20:14:38.827Z,20.70
